Time;durP1;ratioP1;P1;durP2;ratioP2;P2;SDS_P1;SDS_P2;PMS_P1;PMS_P2;Temp;Humidity;BMP_temperature;BMP_pressure;BME280_temperature;BME280_humidity;BME280_pressure;Samples;Min_cycle;Max_cycle;Signal;HPM_P1;HPM_P2
2023/01/13 00:01:46;;;;;;;1.30;0.50;;;;;;;9.39;100.00;99561.13;107524;1253;61462;-74
2023/01/13 00:04:13;;;;;;;1.30;0.30;;;;;;;9.40;100.00;99571.99;107171;1255;61357;-73
2023/01/13 00:06:39;;;;;;;0.50;0.30;;;;;;;9.39;100.00;99571.22;107433;1254;76887;-76
2023/01/13 00:09:07;;;;;;;1.00;0.30;;;;;;;9.40;100.00;99565.58;107475;1253;71282;-76
2023/01/13 00:11:37;;;;;;;1.00;0.40;;;;;;;9.41;100.00;99555.59;108232;1253;73825;-77
2023/01/13 00:14:07;;;;;;;0.70;0.40;;;;;;;9.41;100.00;99552.45;107804;1253;61783;-75
2023/01/13 00:16:33;;;;;;;1.10;0.40;;;;;;;9.42;100.00;99551.16;107277;1253;61319;-75
2023/01/13 00:19:00;;;;;;;0.80;0.40;;;;;;;9.43;100.00;99553.44;107411;1253;75656;-76
2023/01/13 00:21:35;;;;;;;3.30;0.60;;;;;;;9.45;100.00;99553.17;108663;1253;68981;-76
2023/01/13 00:24:02;;;;;;;1.40;0.50;;;;;;;9.47;100.00;99560.02;108839;1253;70916;-76
2023/01/13 00:26:34;;;;;;;1.30;0.50;;;;;;;9.51;100.00;99558.74;108628;1254;61374;-76
2023/01/13 00:29:02;;;;;;;1.10;0.50;;;;;;;9.55;100.00;99557.02;108949;1253;59936;-76
2023/01/13 00:31:29;;;;;;;1.10;0.50;;;;;;;9.57;100.00;99542.27;108535;1253;73964;-76
2023/01/13 00:33:58;;;;;;;0.80;0.40;;;;;;;9.61;100.00;99544.09;108328;1254;72532;-76
2023/01/13 00:36:25;;;;;;;1.20;0.50;;;;;;;9.64;100.00;99541.73;106979;1262;71417;-76
2023/01/13 00:38:52;;;;;;;2.10;0.70;;;;;;;9.67;99.94;99541.17;107534;1253;60988;-76
2023/01/13 00:41:22;;;;;;;1.20;0.50;;;;;;;9.71;99.86;99531.96;107721;1253;61266;-77
2023/01/13 00:43:50;;;;;;;1.60;0.60;;;;;;;9.72;99.97;99529.95;107197;1253;73838;-76
2023/01/13 00:46:33;;;;;;;1.30;0.60;;;;;;;9.70;100.00;99518.38;106944;1253;72435;-76
2023/01/13 00:49:14;;;;;;;1.00;0.40;;;;;;;9.65;100.00;99523.25;106873;1253;75529;-76
2023/01/13 00:51:59;;;;;;;1.00;0.50;;;;;;;9.62;100.00;99511.63;106884;1253;61733;-75
2023/01/13 00:54:39;;;;;;;0.50;0.30;;;;;;;9.57;100.00;99512.25;106695;1254;61183;-73
2023/01/13 00:57:08;;;;;;;1.60;0.40;;;;;;;9.53;100.00;99508.54;106757;1254;75796;-77
2023/01/13 00:59:35;;;;;;;0.70;0.40;;;;;;;9.52;100.00;99504.45;107393;1254;70228;-76
2023/01/13 01:02:02;;;;;;;0.60;0.30;;;;;;;9.51;100.00;99497.20;107550;1253;71770;-76
2023/01/13 01:04:32;;;;;;;0.90;0.40;;;;;;;9.51;100.00;99501.06;107575;1253;61183;-76
2023/01/13 01:06:59;;;;;;;1.30;0.30;;;;;;;9.51;100.00;99506.73;107078;1253;61248;-75
2023/01/13 01:09:32;;;;;;;0.80;0.30;;;;;;;9.51;100.00;99512.63;107144;1253;73060;-76
2023/01/13 01:12:01;;;;;;;0.60;0.30;;;;;;;9.52;100.00;99516.59;107146;1254;71282;-76
2023/01/13 01:14:27;;;;;;;0.60;0.30;;;;;;;9.54;100.00;99501.90;107023;1253;72134;-77
2023/01/13 01:16:57;;;;;;;0.70;0.40;;;;;;;9.55;100.00;99506.09;107015;1253;61248;-78
2023/01/13 01:19:30;;;;;;;0.90;0.30;;;;;;;9.57;100.00;99512.29;107639;1253;61261;-76
2023/01/13 01:22:00;;;;;;;1.00;0.40;;;;;;;9.59;100.00;99524.73;107774;1253;74355;-77
2023/01/13 01:24:29;;;;;;;1.40;0.60;;;;;;;9.59;100.00;99529.65;106648;1253;69711;-76
2023/01/13 01:27:04;;;;;;;2.90;0.50;;;;;;;9.57;100.00;99529.60;106429;1255;71130;-75
2023/01/13 01:29:38;;;;;;;2.50;0.60;;;;;;;9.50;100.00;99530.98;106591;1258;62951;-78
2023/01/13 01:32:10;;;;;;;1.70;0.60;;;;;;;9.42;100.00;99525.34;106737;1256;61289;-75
2023/01/13 01:34:44;;;;;;;4.70;0.70;;;;;;;9.34;100.00;99524.16;106770;1253;73888;-77
2023/01/13 01:37:27;;;;;;;2.10;0.70;;;;;;;9.28;100.00;99531.13;106898;1253;69010;-77
2023/01/13 01:40:16;;;;;;;1.40;0.60;;;;;;;9.27;100.00;99520.86;106752;1254;70671;-77
2023/01/13 01:45:31;;;;;;;2.20;0.50;;;;;;;9.25;100.00;99533.11;106942;1257;61300;-74
2023/01/13 01:48:04;;;;;;;0.90;0.50;;;;;;;9.26;100.00;99524.04;106713;1258;74320;-75
2023/01/13 01:50:34;;;;;;;2.10;0.60;;;;;;;9.26;100.00;99530.67;106804;1257;72506;-76
2023/01/13 01:53:22;;;;;;;1.80;0.40;;;;;;;9.27;100.00;99526.48;107387;1257;74474;-76
2023/01/13 01:55:49;;;;;;;1.50;0.40;;;;;;;9.28;100.00;99522.79;106931;1258;61212;-77
2023/01/13 01:58:24;;;;;;;1.90;0.60;;;;;;;9.30;100.00;99525.80;107373;1256;61222;-77
2023/01/13 02:00:51;;;;;;;1.30;0.60;;;;;;;9.33;100.00;99518.51;106991;1257;76253;-76
2023/01/13 02:03:18;;;;;;;2.00;0.50;;;;;;;9.35;100.00;99522.05;106959;1256;70139;-76
2023/01/13 02:05:45;;;;;;;1.00;0.40;;;;;;;9.39;100.00;99511.20;106867;1256;71969;-76
2023/01/13 02:08:13;;;;;;;0.90;0.40;;;;;;;9.40;100.00;99510.15;106978;1256;61567;-77
2023/01/13 02:10:44;;;;;;;1.60;0.50;;;;;;;9.42;100.00;99500.79;107524;1256;59654;-77
2023/01/13 02:13:12;;;;;;;2.70;0.50;;;;;;;9.42;99.99;99512.08;107388;1260;74110;-75
2023/01/13 02:15:56;;;;;;;2.30;0.50;;;;;;;9.41;99.06;99516.98;106871;1256;71304;-76
2023/01/13 02:18:48;;;;;;;1.20;0.40;;;;;;;9.42;97.31;99504.45;107346;1257;70864;-77
2023/01/13 02:21:46;;;;;;;2.10;0.50;;;;;;;9.42;96.53;99509.98;106886;1256;61328;-75
2023/01/13 02:24:53;;;;;;;1.80;0.40;;;;;;;9.40;95.63;99512.01;108618;1256;61159;-76
2023/01/13 02:27:51;;;;;;;0.80;0.30;;;;;;;9.35;95.32;99511.02;108814;1256;72955;-77
2023/01/13 02:33:42;;;;;;;2.90;0.50;;;;;;;9.29;92.67;99510.90;108039;1259;72074;-77
2023/01/13 02:36:21;;;;;;;2.70;0.50;;;;;;;9.27;92.16;99514.71;107425;1256;61638;-77
2023/01/13 02:39:00;;;;;;;2.00;0.50;;;;;;;9.22;91.99;99519.40;107614;1256;61408;-75
2023/01/13 02:44:33;;;;;;;4.10;0.70;;;;;;;9.11;89.90;99520.05;107913;1257;70455;-77
2023/01/13 02:47:15;;;;;;;2.40;0.70;;;;;;;9.07;89.69;99527.59;107729;1254;74469;-78
2023/01/13 02:49:48;;;;;;;3.70;0.90;;;;;;;9.06;88.22;99542.80;107534;1260;60680;-77
2023/01/13 02:52:44;;;;;;;2.40;0.90;;;;;;;9.05;87.86;99540.96;107895;1254;61122;-78
2023/01/13 02:55:24;;;;;;;2.90;0.90;;;;;;;9.02;87.50;99543.63;108044;1254;72939;-76
2023/01/13 02:57:53;;;;;;;3.70;1.00;;;;;;;8.97;87.57;99547.98;108228;1255;68984;-76
2023/01/13 03:00:22;;;;;;;4.40;1.00;;;;;;;8.95;87.86;99549.44;107939;1254;71339;-76
2023/01/13 03:02:49;;;;;;;3.40;0.90;;;;;;;8.90;87.83;99555.46;107785;1256;61770;-77
2023/01/13 03:05:18;;;;;;;4.60;1.20;;;;;;;8.88;88.27;99558.42;106823;1254;61262;-75
2023/01/13 03:07:54;;;;;;;6.60;1.60;;;;;;;8.83;87.99;99559.52;107917;1256;74996;-77
2023/01/13 03:10:24;;;;;;;6.20;1.30;;;;;;;8.82;87.70;99565.82;107659;1256;69740;-75
2023/01/13 03:13:13;;;;;;;6.10;1.50;;;;;;;8.81;87.62;99563.98;108005;1256;72045;-76
2023/01/13 03:16:03;;;;;;;4.70;1.10;;;;;;;8.79;87.21;99559.56;107471;1256;61623;-77
2023/01/13 03:19:02;;;;;;;5.60;1.30;;;;;;;8.79;86.22;99567.82;107342;1258;61098;-78
2023/01/13 03:21:51;;;;;;;9.80;1.70;;;;;;;8.77;85.01;99576.70;106826;1259;75936;-77
2023/01/13 03:24:33;;;;;;;5.80;1.30;;;;;;;8.76;84.87;99563.60;106942;1256;70372;-76
2023/01/13 03:27:33;;;;;;;5.70;1.20;;;;;;;8.74;84.80;99558.38;107125;1254;70779;-76
2023/01/13 03:30:26;;;;;;;6.60;1.60;;;;;;;8.75;84.63;99543.27;107054;1254;61189;-76
2023/01/13 03:33:15;;;;;;;6.50;1.50;;;;;;;8.75;84.54;99552.09;107483;1252;61184;-77
2023/01/13 03:35:50;;;;;;;7.50;1.50;;;;;;;8.74;84.81;99560.98;107273;1251;73693;-76
2023/01/13 03:38:30;;;;;;;6.10;1.30;;;;;;;8.74;84.22;99561.57;107897;1257;69864;-78
2023/01/13 03:41:02;;;;;;;9.70;2.00;;;;;;;8.76;84.19;99568.21;107997;1254;71694;-78
2023/01/13 03:46:48;;;;;;;8.80;1.90;;;;;;;8.72;84.44;99582.97;108253;1252;61129;-78
2023/01/13 03:49:24;;;;;;;8.00;1.70;;;;;;;8.71;84.03;99575.86;108064;1254;73573;-78
2023/01/13 03:52:01;;;;;;;7.40;1.50;;;;;;;8.69;84.44;99569.70;108649;1253;70520;-78
2023/01/13 03:54:31;;;;;;;9.20;1.80;;;;;;;8.63;84.64;99561.98;107527;1254;71263;-78
2023/01/13 03:57:02;;;;;;;7.70;1.70;;;;;;;8.59;84.22;99568.91;107582;1254;61326;-78
2023/01/13 03:59:34;;;;;;;7.80;1.70;;;;;;;8.55;83.23;99566.12;107606;1252;61122;-79
2023/01/13 04:02:15;;;;;;;8.20;1.30;;;;;;;8.53;83.51;99564.67;107860;1251;73473;-79
2023/01/13 04:04:56;;;;;;;7.30;1.60;;;;;;;8.47;83.31;99565.52;108070;1255;70011;-81
2023/01/13 04:07:49;;;;;;;8.20;1.90;;;;;;;8.40;82.70;99565.31;108043;1251;72688;-82
2023/01/13 04:10:33;;;;;;;8.10;1.80;;;;;;;8.35;82.25;99566.10;108198;1254;59697;-83
2023/01/13 04:13:06;;;;;;;7.90;1.70;;;;;;;8.31;82.27;99569.46;108205;1254;61274;-82
2023/01/13 04:15:40;;;;;;;7.20;1.60;;;;;;;8.25;82.48;99562.95;107580;1254;73734;-83
2023/01/13 04:18:20;;;;;;;6.40;1.60;;;;;;;8.18;83.07;99554.63;108174;1253;70912;-86
2023/01/13 04:20:50;;;;;;;7.90;1.70;;;;;;;8.11;83.57;99551.02;108535;1251;189446;-78
2023/01/13 04:23:18;;;;;;;7.50;1.40;;;;;;;8.06;83.09;99548.92;107605;1253;61228;-76
2023/01/13 04:25:45;;;;;;;8.90;2.20;;;;;;;8.03;83.55;99552.71;107342;1253;61346;-77
2023/01/13 04:28:13;;;;;;;9.00;1.80;;;;;;;8.04;83.84;99556.05;107327;1253;75255;-76
2023/01/13 04:30:41;;;;;;;8.20;1.70;;;;;;;8.03;83.79;99562.76;107648;1253;71409;-76
2023/01/13 04:33:09;;;;;;;7.10;1.60;;;;;;;8.02;83.98;99567.17;107310;1252;72774;-77
2023/01/13 04:35:36;;;;;;;8.00;2.00;;;;;;;8.01;83.91;99560.94;106985;1254;62496;-77
2023/01/13 04:38:06;;;;;;;5.50;1.40;;;;;;;7.99;83.64;99557.50;107134;1256;61298;-76
2023/01/13 04:40:33;;;;;;;6.80;1.60;;;;;;;7.97;84.03;99556.65;107307;1253;75416;-77
2023/01/13 04:43:00;;;;;;;10.40;1.90;;;;;;;7.94;84.27;99558.63;107548;1253;71820;-77
2023/01/13 04:45:27;;;;;;;7.50;1.70;;;;;;;7.90;84.62;99563.79;107398;1254;72404;-77
2023/01/13 04:47:54;;;;;;;8.60;1.70;;;;;;;7.86;84.97;99569.10;107188;1253;61778;-76
2023/01/13 04:50:21;;;;;;;9.10;1.90;;;;;;;7.84;85.07;99572.72;107954;1253;61092;-77
2023/01/13 04:52:52;;;;;;;8.70;1.50;;;;;;;7.82;85.51;99571.52;107291;1253;74762;-77
2023/01/13 04:55:21;;;;;;;8.80;1.90;;;;;;;7.80;85.27;99573.15;107273;1252;70076;-78
2023/01/13 04:57:49;;;;;;;7.10;1.80;;;;;;;7.80;85.82;99573.32;107471;1253;73495;-76
2023/01/13 05:00:18;;;;;;;7.70;1.70;;;;;;;7.80;86.21;99572.67;107930;1253;59686;-77
2023/01/13 05:02:45;;;;;;;7.10;1.70;;;;;;;7.79;86.19;99569.29;107203;1253;59132;-77
2023/01/13 05:05:12;;;;;;;6.70;1.50;;;;;;;7.79;85.97;99565.48;107158;1259;74868;-77
2023/01/13 05:07:39;;;;;;;6.80;1.60;;;;;;;7.79;86.36;99565.88;107321;1253;71153;-76
2023/01/13 05:10:06;;;;;;;8.70;1.70;;;;;;;7.78;86.21;99563.34;107976;1253;73585;-77
2023/01/13 05:18:05;;;;;;;9.10;1.60;;;;;;;7.83;85.77;99547.09;107683;1254;74758;-76
2023/01/13 05:20:32;;;;;;;10.00;2.10;;;;;;;7.85;85.26;99555.19;107473;1253;69619;-76
2023/01/13 05:25:46;;;;;;;11.80;2.10;;;;;;;7.86;85.22;99563.41;107174;1253;60380;-77
2023/01/13 05:28:14;;;;;;;9.40;1.90;;;;;;;7.87;85.41;99562.25;107670;1254;61294;-76
2023/01/13 05:30:47;;;;;;;8.60;1.80;;;;;;;7.87;85.29;99560.74;107487;1254;75887;-78
2023/01/13 05:33:17;;;;;;;9.20;1.90;;;;;;;7.84;85.40;99563.28;107292;1256;70341;-76
2023/01/13 05:35:45;;;;;;;8.60;2.00;;;;;;;7.83;85.08;99560.83;106988;1254;73581;-77
2023/01/13 05:38:15;;;;;;;9.20;1.70;;;;;;;7.83;85.13;99564.32;107634;1253;61269;-78
2023/01/13 05:43:31;;;;;;;6.60;1.70;;;;;;;7.81;84.62;99572.45;107524;1253;75426;-77
2023/01/13 05:46:04;;;;;;;8.40;2.00;;;;;;;7.82;84.50;99555.88;107269;1253;69237;-76
2023/01/13 05:48:37;;;;;;;12.10;2.90;;;;;;;7.79;84.25;99559.02;106727;1254;73263;-77
2023/01/13 05:51:06;;;;;;;11.30;2.50;;;;;;;7.78;84.06;99555.44;107035;1253;61367;-77
2023/01/13 05:53:33;;;;;;;9.90;2.60;;;;;;;7.77;84.07;99550.58;106941;1253;61337;-77
2023/01/13 05:56:03;;;;;;;11.80;2.70;;;;;;;7.75;84.00;99539.16;107736;1254;73934;-77
2023/01/13 05:58:30;;;;;;;11.20;2.70;;;;;;;7.72;84.07;99533.40;107131;1254;70585;-76
2023/01/13 06:01:02;;;;;;;8.90;2.60;;;;;;;7.71;84.23;99538.30;107700;1253;71630;-76
2023/01/13 06:03:29;;;;;;;13.80;2.90;;;;;;;7.68;84.21;99542.17;107239;1254;62612;-76
2023/01/13 06:06:00;;;;;;;13.20;3.40;;;;;;;7.65;84.64;99545.70;107189;1256;61157;-76
2023/01/13 06:08:29;;;;;;;12.90;3.40;;;;;;;7.63;84.49;99556.48;107225;1253;73481;-77
2023/01/13 06:10:55;;;;;;;14.20;3.30;;;;;;;7.66;84.68;99552.98;107574;1258;69997;-75
2023/01/13 06:13:24;;;;;;;12.30;3.00;;;;;;;7.71;84.29;99557.52;107096;1253;70441;-77
2023/01/13 06:15:54;;;;;;;12.60;3.40;;;;;;;7.74;83.58;99558.64;107381;1253;61919;-79
2023/01/13 06:18:23;;;;;;;14.20;3.00;;;;;;;7.82;83.20;99564.27;106842;1253;61243;-77
2023/01/13 06:20:50;;;;;;;13.50;4.30;;;;;;;7.88;82.64;99565.38;107411;1253;75088;-76
2023/01/13 06:23:26;;;;;;;12.10;3.30;;;;;;;7.93;82.28;99559.84;107451;1255;70990;-76
2023/01/13 06:26:22;;;;;;;10.50;2.60;;;;;;;7.96;81.85;99557.67;107381;1253;71138;-75
2023/01/13 06:28:50;;;;;;;10.70;2.30;;;;;;;8.00;80.88;99550.79;107694;1253;61970;-78
2023/01/13 06:31:17;;;;;;;9.80;2.90;;;;;;;8.05;80.73;99557.98;107775;1253;60040;-76
2023/01/13 06:33:52;;;;;;;14.30;3.00;;;;;;;8.08;80.48;99560.11;107636;1256;73577;-77
2023/01/13 06:36:22;;;;;;;11.60;2.40;;;;;;;8.10;80.08;99556.25;107309;1253;69828;-80
2023/01/13 06:38:55;;;;;;;11.50;2.40;;;;;;;8.17;80.53;99556.21;107938;1253;72392;-78
2023/01/13 06:43:13;;;;;;;10.30;2.70;;;;;;;8.22;80.88;99562.14;107332;1254;61222;-71
2023/01/13 06:44:09;;;;;;;9.70;2.00;;;;;;;8.33;81.60;99559.36;107204;1253;61234;-73
2023/01/13 06:46:36;;;;;;;11.00;2.10;;;;;;;8.43;81.40;99558.80;107059;1252;73630;-72
2023/01/13 06:49:02;;;;;;;13.40;2.70;;;;;;;8.51;81.08;99550.14;107036;1259;71040;-72
2023/01/13 06:51:29;;;;;;;11.00;1.90;;;;;;;8.51;79.99;99555.59;107504;1253;72222;-73
2023/01/13 06:53:56;;;;;;;9.10;1.90;;;;;;;8.48;79.72;99555.52;107259;1254;61717;-72
2023/01/13 06:56:23;;;;;;;10.20;2.10;;;;;;;8.46;79.32;99556.31;107555;1253;61311;-74
2023/01/13 06:58:50;;;;;;;11.50;2.10;;;;;;;8.47;79.31;99560.83;107109;1253;75254;-70
2023/01/13 07:01:16;;;;;;;10.30;2.40;;;;;;;8.47;79.42;99550.43;107621;1254;71017;-76
2023/01/13 07:03:43;;;;;;;9.10;2.30;;;;;;;8.46;79.38;99534.52;106124;1256;72718;-73
2023/01/13 07:06:10;;;;;;;7.70;2.00;;;;;;;8.41;78.74;99541.61;106774;1253;62317;-73
2023/01/13 07:08:37;;;;;;;7.70;1.90;;;;;;;8.38;78.16;99543.33;107197;1254;61223;-72
2023/01/13 07:11:07;;;;;;;8.10;2.50;;;;;;;8.36;78.20;99548.21;107441;1253;75094;-70
2023/01/13 07:16:23;;;;;;;15.70;7.50;;;;;;;8.32;77.67;99565.73;106899;1253;72840;-73
2023/01/13 07:18:50;;;;;;;7.90;2.00;;;;;;;8.31;77.70;99569.10;106633;1253;61642;-70
2023/01/13 07:21:18;;;;;;;10.00;2.70;;;;;;;8.31;77.84;99563.66;106487;1253;61579;-71
2023/01/13 07:23:46;;;;;;;5.20;1.50;;;;;;;8.29;77.71;99568.77;106997;1253;75744;-71
2023/01/13 07:26:14;;;;;;;7.10;2.40;;;;;;;8.27;77.76;99573.45;106561;1253;70930;-74
2023/01/13 07:28:41;;;;;;;8.50;1.70;;;;;;;8.27;77.07;99572.41;106855;1253;71707;-74
2023/01/13 07:31:25;;;;;;;12.70;2.30;;;;;;;8.28;77.41;99564.70;107135;1253;60131;-77
2023/01/13 07:33:59;;;;;;;9.90;2.10;;;;;;;8.27;77.74;99578.08;107141;1253;61294;-76
2023/01/13 07:36:26;;;;;;;9.50;1.90;;;;;;;8.24;76.95;99587.00;106598;1262;74962;-74
2023/01/13 07:38:55;;;;;;;10.20;1.70;;;;;;;8.26;77.25;99583.84;106758;1259;70028;-77
2023/01/13 07:44:09;;;;;;;10.20;1.90;;;;;;;8.21;77.00;99584.08;106712;1254;61283;-75
2023/01/13 07:46:37;;;;;;;8.60;1.50;;;;;;;8.19;76.84;99583.61;106542;1252;61263;-78
2023/01/13 07:49:05;;;;;;;10.40;1.70;;;;;;;8.19;76.59;99597.18;107325;1252;73520;-75
2023/01/13 07:51:35;;;;;;;11.50;1.90;;;;;;;8.16;76.80;99583.59;107132;1257;70214;-76
2023/01/13 07:54:05;;;;;;;9.30;2.10;;;;;;;8.17;76.94;99588.27;106676;1253;72131;-77
2023/01/13 07:56:32;;;;;;;7.70;1.60;;;;;;;8.18;76.33;99592.14;106544;1254;61271;-77
2023/01/13 07:58:59;;;;;;;7.80;1.90;;;;;;;8.19;76.42;99587.60;106833;1258;61145;-77
2023/01/13 08:01:27;;;;;;;7.70;1.60;;;;;;;8.22;76.28;99587.95;106912;1254;74682;-78
2023/01/13 08:03:55;;;;;;;6.10;1.60;;;;;;;8.23;75.94;99598.13;106685;1259;70510;-77
2023/01/13 08:06:22;;;;;;;7.20;1.50;;;;;;;8.22;75.28;99606.45;106699;1254;72396;-77
2023/01/13 08:08:48;;;;;;;6.90;1.50;;;;;;;8.25;75.46;99601.85;107483;1254;62354;-76
2023/01/13 08:11:15;;;;;;;6.60;1.50;;;;;;;8.27;75.88;99594.23;106894;1259;61241;-77
2023/01/13 08:13:42;;;;;;;7.40;1.60;;;;;;;8.26;75.82;99589.42;106535;1254;73139;-76
2023/01/13 08:16:12;;;;;;;8.00;1.60;;;;;;;8.28;75.88;99584.77;106541;1254;71220;-77
2023/01/13 08:18:40;;;;;;;6.80;1.60;;;;;;;8.28;75.66;99587.29;106619;1252;71969;-79
2023/01/13 08:21:12;;;;;;;9.70;1.30;;;;;;;8.27;75.43;99584.52;106727;1254;61264;-77
2023/01/13 08:23:51;;;;;;;7.20;1.40;;;;;;;8.29;74.99;99584.52;106720;1254;61365;-77
2023/01/13 08:26:18;;;;;;;7.10;1.40;;;;;;;8.29;75.55;99583.64;107208;1253;74031;-77
2023/01/13 08:28:45;;;;;;;8.30;1.80;;;;;;;8.27;75.64;99583.86;106847;1253;69733;-76
2023/01/13 08:31:15;;;;;;;9.30;1.60;;;;;;;8.27;75.64;99598.13;106791;1254;71522;-79
2023/01/13 08:33:42;;;;;;;9.20;1.40;;;;;;;8.28;75.64;99597.25;106628;1253;61834;-78
2023/01/13 08:36:11;;;;;;;6.40;1.80;;;;;;;8.32;74.89;99606.27;106716;1253;61253;-79
2023/01/13 08:38:41;;;;;;;8.40;1.70;;;;;;;8.39;75.09;99603.91;106960;1254;72540;-78
2023/01/13 08:41:13;;;;;;;8.00;1.80;;;;;;;8.44;75.32;99606.14;106820;1254;69866;-78
2023/01/13 08:43:40;;;;;;;7.90;1.70;;;;;;;8.46;75.31;99608.65;106784;1253;71143;-78
2023/01/13 08:46:07;;;;;;;8.00;2.20;;;;;;;8.50;75.15;99617.55;107131;1252;61155;-77
2023/01/13 08:48:34;;;;;;;8.30;1.60;;;;;;;8.52;74.80;99616.92;106582;1253;61325;-76
2023/01/13 08:51:06;;;;;;;9.30;1.40;;;;;;;8.54;74.75;99625.15;106519;1253;74465;-75
2023/01/13 08:53:33;;;;;;;8.40;1.70;;;;;;;8.55;74.28;99616.87;106943;1254;70986;-76
2023/01/13 08:55:59;;;;;;;7.50;1.50;;;;;;;8.56;74.37;99617.78;106490;1254;70656;-77
2023/01/13 08:58:26;;;;;;;5.80;1.50;;;;;;;8.55;73.85;99621.80;107075;1254;61195;-77
2023/01/13 09:00:55;;;;;;;11.40;2.00;;;;;;;8.53;74.05;99613.77;106544;1259;61269;-80
2023/01/13 09:03:22;;;;;;;8.70;1.80;;;;;;;8.53;73.89;99615.74;106726;1254;74693;-80
2023/01/13 09:05:50;;;;;;;9.30;1.80;;;;;;;8.55;73.67;99611.59;107240;1253;71275;-77
2023/01/13 09:08:16;;;;;;;8.40;1.70;;;;;;;8.56;73.46;99614.98;106540;1259;72483;-79
2023/01/13 09:10:43;;;;;;;7.80;1.90;;;;;;;8.59;73.30;99609.39;106983;1254;61335;-76
2023/01/13 09:13:12;;;;;;;7.30;1.80;;;;;;;8.64;72.96;99607.42;106503;1254;61151;-76
2023/01/13 09:15:46;;;;;;;9.10;1.90;;;;;;;8.68;72.89;99610.16;106649;1259;74646;-76
2023/01/13 09:18:12;;;;;;;7.20;1.60;;;;;;;8.72;71.76;99617.27;107117;1254;71211;-77
2023/01/13 09:20:40;;;;;;;8.80;2.00;;;;;;;8.75;71.46;99615.52;106712;1254;72742;-76
2023/01/13 09:23:07;;;;;;;9.70;1.80;;;;;;;8.77;70.49;99611.05;106253;1254;61217;-77
2023/01/13 09:25:37;;;;;;;11.30;2.20;;;;;;;8.79;70.03;99623.85;106216;1254;61858;-76
2023/01/13 09:28:04;;;;;;;7.80;1.60;;;;;;;8.83;69.43;99628.52;106262;1256;73977;-77
2023/01/13 09:30:31;;;;;;;8.60;1.70;;;;;;;8.89;67.92;99625.40;106393;1253;71598;-77
2023/01/13 09:35:44;;;;;;;8.00;2.00;;;;;;;9.05;68.50;99638.23;106371;1257;61231;-77
2023/01/13 09:38:11;;;;;;;7.90;1.70;;;;;;;9.06;68.28;99638.73;106683;1256;61123;-77
2023/01/13 09:40:47;;;;;;;8.30;1.80;;;;;;;9.05;68.74;99637.41;106763;1257;74621;-77
2023/01/13 09:49:32;;;;;;;11.60;2.10;;;;;;;8.99;68.01;99631.14;106338;1256;61301;-76
2023/01/13 09:52:21;;;;;;;7.10;1.60;;;;;;;9.00;68.09;99635.26;106360;1258;61149;-77
2023/01/13 09:55:02;;;;;;;6.90;2.00;;;;;;;8.96;68.15;99647.60;106957;1254;74867;-77
2023/01/13 09:57:35;;;;;;;7.30;1.50;;;;;;;8.94;68.25;99634.66;106236;1256;69828;-77
2023/01/13 10:00:10;;;;;;;11.60;1.90;;;;;;;8.93;68.40;99643.66;106599;1257;71139;-78
2023/01/13 10:03:07;;;;;;;8.50;1.80;;;;;;;8.90;67.86;99637.08;106527;1253;61339;-78
2023/01/13 10:05:42;;;;;;;8.30;1.80;;;;;;;8.89;68.04;99638.83;106308;1259;61234;-79
2023/01/13 10:08:39;;;;;;;6.90;1.60;;;;;;;8.92;68.65;99644.95;108030;1254;74412;-79
2023/01/13 10:14:01;;;;;;;6.80;1.60;;;;;;;8.98;67.58;99638.39;106910;1254;71761;-78
2023/01/13 10:16:28;;;;;;;13.00;2.20;;;;;;;8.97;67.54;99641.02;106581;1254;61325;-78
2023/01/13 10:19:00;;;;;;;7.50;1.60;;;;;;;8.97;67.84;99639.02;106564;1256;61263;-77
2023/01/13 10:22:08;;;;;;;7.60;1.60;;;;;;;8.98;67.58;99634.35;106219;1256;384603;-79
2023/01/13 10:24:41;;;;;;;11.80;1.90;;;;;;;8.98;67.27;99632.64;106293;1254;70278;-78
2023/01/13 10:27:20;;;;;;;7.00;1.50;;;;;;;8.98;67.55;99638.62;106217;1254;70602;-77
2023/01/13 10:29:46;;;;;;;9.80;1.70;;;;;;;8.94;66.95;99639.48;106699;1256;61636;-76
2023/01/13 10:32:13;;;;;;;11.60;1.90;;;;;;;8.92;66.47;99631.24;106489;1255;61234;-75
2023/01/13 10:34:51;;;;;;;11.80;2.20;;;;;;;8.90;67.14;99652.27;106880;1253;74098;-76
2023/01/13 10:37:23;;;;;;;8.60;2.10;;;;;;;8.90;67.33;99640.46;106510;1256;71484;-78
2023/01/13 10:39:53;;;;;;;11.40;2.20;;;;;;;8.90;67.75;99646.48;106284;1257;71273;-76
2023/01/13 10:42:22;;;;;;;7.10;1.90;;;;;;;8.89;67.72;99641.63;106259;1254;61446;-77
2023/01/13 10:44:53;;;;;;;8.40;2.30;;;;;;;8.89;68.02;99649.45;106502;1256;61270;-77
2023/01/13 10:47:27;;;;;;;9.20;1.70;;;;;;;8.86;67.67;99647.15;106905;1254;73153;-78
2023/01/13 10:50:12;;;;;;;6.90;1.40;;;;;;;8.83;67.59;99643.41;106864;1254;70094;-78
2023/01/13 10:52:57;;;;;;;9.10;2.30;;;;;;;8.83;67.25;99646.63;107093;1253;72962;-78
2023/01/13 10:55:35;;;;;;;7.00;1.90;;;;;;;8.85;67.25;99653.45;106931;1259;61237;-79
2023/01/13 10:58:17;;;;;;;7.10;1.60;;;;;;;8.89;67.07;99651.23;106556;1253;59977;-78
2023/01/13 11:00:45;;;;;;;8.30;1.70;;;;;;;8.91;66.73;99657.31;106513;1257;75594;-78
2023/01/13 11:03:22;;;;;;;8.60;1.80;;;;;;;8.92;66.70;99649.22;106355;1254;69681;-78
2023/01/13 11:05:53;;;;;;;8.90;1.60;;;;;;;8.94;67.11;99666.98;106327;1260;71252;-78
2023/01/13 11:08:26;;;;;;;10.60;1.80;;;;;;;8.93;66.52;99663.27;106839;1260;61293;-75
2023/01/13 11:10:56;;;;;;;9.00;1.70;;;;;;;8.91;66.35;99663.05;106402;1256;61122;-77
2023/01/13 11:14:31;;;;;;;6.10;1.50;;;;;;;8.92;66.56;99661.60;106846;1253;74538;-78
2023/01/13 11:16:27;;;;;;;6.40;1.70;;;;;;;8.89;65.16;99661.20;106288;1253;71138;-78
2023/01/13 11:19:11;;;;;;;7.50;1.60;;;;;;;8.90;65.64;99659.34;106385;1259;71049;-79
2023/01/13 11:21:55;;;;;;;9.20;1.80;;;;;;;8.85;65.89;99663.45;106333;1254;62581;-79
2023/01/13 11:24:41;;;;;;;9.30;1.90;;;;;;;8.83;66.76;99661.65;106576;1252;61196;-77
2023/01/13 11:27:20;;;;;;;6.80;1.50;;;;;;;8.82;67.08;99661.98;106739;1258;73966;-77
2023/01/13 11:30:33;;;;;;;6.30;1.70;;;;;;;8.81;67.09;99673.66;107325;1257;69207;-79
2023/01/13 11:33:14;;;;;;;7.20;1.70;;;;;;;8.82;67.18;99663.34;106670;1260;71269;-76
2023/01/13 11:35:47;;;;;;;6.80;1.80;;;;;;;8.82;67.25;99663.46;106804;1254;61851;-79
2023/01/13 11:38:39;;;;;;;10.70;2.10;;;;;;;8.81;67.72;99660.35;106450;1260;61803;-78
2023/01/13 11:41:30;;;;;;;12.50;1.90;;;;;;;8.85;67.28;99654.70;106668;1256;75918;-77
2023/01/13 11:44:08;;;;;;;9.70;1.90;;;;;;;8.95;67.18;99660.04;106910;1254;69975;-78
2023/01/13 11:46:35;;;;;;;8.90;1.80;;;;;;;9.01;66.60;99653.79;106692;1254;71160;-77
2023/01/13 11:49:03;;;;;;;8.50;2.00;;;;;;;9.00;66.65;99658.98;106772;1259;61250;-79
2023/01/13 11:51:42;;;;;;;8.50;1.80;;;;;;;9.00;66.38;99651.98;106650;1256;61657;-77
2023/01/13 11:54:52;;;;;;;9.80;2.10;;;;;;;8.99;66.57;99653.31;106603;1254;72454;-78
2023/01/13 11:57:56;;;;;;;8.50;1.70;;;;;;;8.95;66.75;99648.25;106683;1256;72591;-77
2023/01/13 12:00:53;;;;;;;9.70;2.00;;;;;;;8.91;67.64;99654.13;106956;1257;70773;-77
2023/01/13 12:03:41;;;;;;;9.80;2.00;;;;;;;8.90;67.93;99652.78;107108;1255;61269;-77
2023/01/13 12:06:27;;;;;;;9.70;1.70;;;;;;;8.84;68.24;99652.33;107094;1253;61899;-79
2023/01/13 12:09:12;;;;;;;9.70;2.00;;;;;;;8.80;68.63;99651.71;106741;1254;74690;-77
2023/01/13 12:14:40;;;;;;;8.10;1.90;;;;;;;8.76;69.21;99651.92;106511;1253;71148;-77
2023/01/13 12:17:16;;;;;;;9.30;2.10;;;;;;;8.73;69.34;99660.89;106821;1254;61830;-79
2023/01/13 12:19:49;;;;;;;8.10;2.20;;;;;;;8.71;68.77;99661.12;108248;1253;60355;-76
2023/01/13 12:22:29;;;;;;;8.40;1.80;;;;;;;8.70;68.86;99661.79;107810;1260;74531;-78
2023/01/13 12:25:12;;;;;;;7.20;1.80;;;;;;;8.70;68.85;99660.56;107453;1254;70130;-77
2023/01/13 12:27:44;;;;;;;7.80;1.70;;;;;;;8.73;68.79;99656.66;107120;1254;72692;-78
2023/01/13 12:30:19;;;;;;;7.70;1.80;;;;;;;8.74;68.27;99660.65;106978;1260;61174;-77
2023/01/13 12:32:47;;;;;;;8.10;2.00;;;;;;;8.76;68.35;99663.16;107018;1255;61170;-78
2023/01/13 12:35:22;;;;;;;10.40;2.00;;;;;;;8.79;68.75;99662.12;106761;1254;73197;-79
2023/01/13 12:37:58;;;;;;;7.90;1.90;;;;;;;8.84;68.96;99659.09;106901;1256;71080;-77
2023/01/13 12:41:13;;;;;;;8.10;2.20;;;;;;;8.82;69.91;99661.71;106663;1254;73046;-79
2023/01/13 12:46:30;;;;;;;11.40;2.00;;;;;;;8.71;70.37;99666.20;106821;1254;61149;-78
2023/01/13 12:49:16;;;;;;;9.00;1.70;;;;;;;8.69;70.09;99665.60;107281;1254;74666;-79